This is the latest recevied weather packets stored in our database for station/object KT2UU-13. If no packets are shown the sender has not sent any weather packets the latest 10 day(s).
| Time | Temp. | Humidity | Pressure | Rain* | Wind** | Luminosity | Snow |
|---|---|---|---|---|---|---|---|
| 1777683471 | 15° C | 83% | 1014.6 hPa | 0 mm | - | - | - |
| 1777683169 | 15° C | 81% | 1014.3 hPa | 0 mm | - | - | - |
| 1777682866 | 15° C | 79% | 1014 hPa | 0 mm | - | - | - |
| 1777682562 | 15° C | 79% | 1014.1 hPa | 0 mm | - | - | - |
| 1777682260 | 15° C | 79% | 1014.1 hPa | 0 mm | - | - | - |
| 1777681957 | 15° C | 80% | 1014.1 hPa | 0 mm | - | - | - |
| 1777681653 | 15.56° C | 78% | 1014.2 hPa | 0 mm | - | - | - |
| 1777681351 | 15.56° C | 77% | 1014.2 hPa | 0 mm | - | - | - |
| 1777681047 | 15.56° C | 76% | 1014.2 hPa | 0 mm | - | - | - |
| 1777680746 | 16.11° C | 76% | 1014 hPa | 0 mm | - | - | - |
| 1777680443 | 16.11° C | 76% | 1013.9 hPa | 0 mm | - | - | - |
| 1777680141 | 16.67° C | 76% | 1014.1 hPa | 0 mm | - | - | - |
| 1777679836 | 16.67° C | 75% | 1014.1 hPa | 0 mm | - | - | - |
| 1777679532 | 16.67° C | 74% | 1013.9 hPa | 0 mm | - | - | - |
| 1777679228 | 16.67° C | 72% | 1014.1 hPa | 0 mm | - | - | - |
| 1777678926 | 17.22° C | 69% | 1013.8 hPa | 0 mm | - | - | - |
| 1777678623 | 17.22° C | 70% | 1014 hPa | 0 mm | - | - | - |
| 1777678320 | 17.22° C | 69% | 1013.9 hPa | 0 mm | - | - | - |
| 1777678016 | 17.22° C | 68% | 1013.9 hPa | 0 mm | - | - | - |
| 1777677714 | 17.78° C | 68% | 1014 hPa | 0 mm | - | - | - |
| 1777677411 | 17.78° C | 64% | 1013.9 hPa | 0 mm | - | - | - |
| 1777677109 | 17.78° C | 60% | 1013.9 hPa | 0 mm | - | - | - |
| 1777676807 | 18.33° C | 66% | 1013.7 hPa | 0 mm | - | - | - |
| 1777676505 | 17.78° C | 59% | 1013.7 hPa | 0 mm | - | - | - |
| 1777676203 | 18.33° C | 60% | 1013.9 hPa | 0 mm | - | - | - |
* Rain latest hour (hover to see other rain measurements)
** Current wind speed in m/s (hover to see current wind gust speed)